createdAt,value
2018-12-20T00:00:20.365Z,0.00
2018-12-20T00:01:20.251Z,0.00
2018-12-20T00:02:20.317Z,0.00
2018-12-20T00:03:20.249Z,0.00
2018-12-20T00:04:20.162Z,0.00
2018-12-20T00:05:20.281Z,0.00
2018-12-20T00:06:20.120Z,0.00
2018-12-20T00:07:20.101Z,0.00
2018-12-20T00:08:20.106Z,0.00
2018-12-20T00:09:20.108Z,0.00
2018-12-20T00:10:20.169Z,0.00
2018-12-20T00:11:20.021Z,0.00
2018-12-20T00:12:20.126Z,0.00
2018-12-20T00:13:20.049Z,0.00
2018-12-20T00:14:19.991Z,0.00
2018-12-20T00:15:20.173Z,0.00
2018-12-20T00:16:20.016Z,0.00
2018-12-20T00:17:19.907Z,0.00
2018-12-20T00:18:19.937Z,0.00
2018-12-20T00:19:19.864Z,0.00
2018-12-20T00:20:19.914Z,0.00
2018-12-20T00:21:20.032Z,0.00
2018-12-20T00:22:19.798Z,0.00
2018-12-20T00:23:19.946Z,0.00
2018-12-20T00:24:19.948Z,0.00
2018-12-20T00:25:19.741Z,0.00
2018-12-20T00:26:19.846Z,0.00
2018-12-20T00:27:19.814Z,0.00
2018-12-20T00:28:19.698Z,0.00
2018-12-20T00:29:19.656Z,0.00
2018-12-20T00:30:19.630Z,0.00
2018-12-20T00:31:19.609Z,0.00
2018-12-20T00:32:19.731Z,0.00
2018-12-20T00:33:19.601Z,0.00
2018-12-20T00:34:19.546Z,0.00
2018-12-20T00:35:19.648Z,0.00
2018-12-20T00:36:19.562Z,0.00
2018-12-20T00:37:19.484Z,0.00
2018-12-20T00:38:19.551Z,0.00
2018-12-20T00:39:19.442Z,0.00
2018-12-20T00:40:19.522Z,0.00
2018-12-20T00:41:19.400Z,0.00
2018-12-20T00:42:19.503Z,0.00
2018-12-20T00:43:19.383Z,0.00
2018-12-20T00:44:19.354Z,0.00
2018-12-20T00:45:19.332Z,0.00
2018-12-20T00:46:19.298Z,0.00
2018-12-20T00:47:19.322Z,0.00
2018-12-20T00:48:19.379Z,0.00
2018-12-20T00:49:19.236Z,0.00
2018-12-20T00:50:19.327Z,0.00
2018-12-20T00:51:19.192Z,0.00
2018-12-20T00:52:19.275Z,0.00
2018-12-20T00:53:19.218Z,0.00
2018-12-20T00:54:19.142Z,0.00
2018-12-20T00:55:19.110Z,0.00
2018-12-20T00:56:19.160Z,0.00
2018-12-20T00:57:19.066Z,0.00
2018-12-20T00:58:19.182Z,0.00
2018-12-20T00:59:19.045Z,0.00
2018-12-20T01:00:19.004Z,0.00
2018-12-20T01:01:18.999Z,0.00
2018-12-20T01:02:19.042Z,0.00
2018-12-20T01:03:18.946Z,0.00
2018-12-20T01:04:19.041Z,0.00
2018-12-20T01:05:18.979Z,0.00
2018-12-20T01:06:18.918Z,0.00
2018-12-20T01:07:18.859Z,0.00
2018-12-20T01:08:18.835Z,0.00
2018-12-20T01:09:18.823Z,0.00
2018-12-20T01:10:18.877Z,0.00
2018-12-20T01:11:18.775Z,0.00
2018-12-20T01:12:18.751Z,0.00
2018-12-20T01:13:18.743Z,0.00
2018-12-20T01:14:18.787Z,0.00
2018-12-20T01:15:18.702Z,0.00
2018-12-20T01:16:18.832Z,0.00
2018-12-20T01:17:18.732Z,0.00
2018-12-20T01:18:18.633Z,0.00
2018-12-20T01:19:18.660Z,0.00
2018-12-20T01:20:18.685Z,0.00
2018-12-20T01:21:18.596Z,0.00
2018-12-20T01:22:18.556Z,0.00
2018-12-20T01:23:18.568Z,0.00
2018-12-20T01:24:18.585Z,0.00
2018-12-20T01:25:18.543Z,0.00
2018-12-20T01:26:18.464Z,0.00
2018-12-20T01:27:18.443Z,0.00
2018-12-20T01:28:18.559Z,0.00
2018-12-20T01:29:18.541Z,0.00
2018-12-20T01:30:18.527Z,0.00
2018-12-20T01:31:18.481Z,0.00
2018-12-20T01:32:18.438Z,0.00
2018-12-20T01:33:18.308Z,0.00
2018-12-20T01:34:18.287Z,0.00
2018-12-20T01:35:18.270Z,0.00
2018-12-20T01:36:18.245Z,0.00
2018-12-20T01:37:18.268Z,0.00
2018-12-20T01:38:18.381Z,0.00
2018-12-20T01:39:18.181Z,0.00
2018-12-20T01:40:18.158Z,0.00
2018-12-20T01:41:18.173Z,0.00
2018-12-20T01:42:18.233Z,0.00
2018-12-20T01:43:18.098Z,0.00
2018-12-20T01:44:18.082Z,0.00
2018-12-20T01:45:18.068Z,0.00
2018-12-20T01:46:18.217Z,0.00
2018-12-20T01:47:18.041Z,0.00
2018-12-20T01:48:18.060Z,0.00
2018-12-20T01:49:18.071Z,0.00
2018-12-20T01:50:17.950Z,0.00
2018-12-20T01:51:18.077Z,0.00
2018-12-20T01:52:18.005Z,0.00
2018-12-20T01:53:17.887Z,0.00
2018-12-20T01:54:17.863Z,0.00
2018-12-20T01:55:17.855Z,0.00
2018-12-20T01:56:17.848Z,0.00
2018-12-20T01:57:17.940Z,0.00
2018-12-20T01:58:17.783Z,0.00
2018-12-20T01:59:17.780Z,0.00
2018-12-20T02:00:17.894Z,0.00
2018-12-20T02:01:17.715Z,0.00
2018-12-20T02:02:17.875Z,0.00
2018-12-20T02:03:17.849Z,0.00
2018-12-20T02:04:17.764Z,0.00
2018-12-20T02:05:17.768Z,0.00
2018-12-20T02:06:17.684Z,0.00
2018-12-20T02:07:17.627Z,0.00
2018-12-20T02:08:17.570Z,0.00
2018-12-20T02:09:17.712Z,0.00
2018-12-20T02:10:17.522Z,0.00
2018-12-20T02:11:17.624Z,0.00
2018-12-20T02:12:17.688Z,0.00
2018-12-20T02:13:17.607Z,0.00
2018-12-20T02:14:17.479Z,0.00
2018-12-20T02:15:17.506Z,0.00
2018-12-20T02:16:17.633Z,0.00
2018-12-20T02:17:17.377Z,0.00
2018-12-20T02:18:17.354Z,0.00
2018-12-20T02:19:17.333Z,0.00
2018-12-20T02:20:17.315Z,0.00
2018-12-20T02:21:17.317Z,0.00
2018-12-20T02:22:17.346Z,0.00
2018-12-20T02:23:17.304Z,0.00
2018-12-20T02:24:17.228Z,0.00
2018-12-20T02:25:17.206Z,0.00
2018-12-20T02:26:17.359Z,0.00
2018-12-20T02:27:17.196Z,0.00
2018-12-20T02:28:17.164Z,0.00
2018-12-20T02:29:17.123Z,0.00
2018-12-20T02:30:17.117Z,0.00
2018-12-20T02:31:17.085Z,0.00
2018-12-20T02:32:17.060Z,0.00
2018-12-20T02:33:17.039Z,0.00
2018-12-20T02:34:17.023Z,0.00
2018-12-20T02:35:17.138Z,0.00
2018-12-20T02:36:17.092Z,0.00
2018-12-20T02:37:16.957Z,0.00
2018-12-20T02:38:17.089Z,0.00
2018-12-20T02:39:17.109Z,0.00
2018-12-20T02:40:16.982Z,0.00
2018-12-20T02:41:17.033Z,0.00
2018-12-20T02:42:16.881Z,0.00
2018-12-20T02:43:16.838Z,0.00
2018-12-20T02:44:17.040Z,0.00
2018-12-20T02:45:16.827Z,0.00
2018-12-20T02:46:16.768Z,0.00
2018-12-20T02:47:16.776Z,0.00
2018-12-20T02:48:16.727Z,0.00
2018-12-20T02:49:16.728Z,0.00
2018-12-20T02:50:16.735Z,0.00
2018-12-20T02:51:16.783Z,0.00
2018-12-20T02:52:16.643Z,0.00
2018-12-20T02:53:16.698Z,0.00
2018-12-20T02:54:16.666Z,0.00
2018-12-20T02:55:16.579Z,0.00
2018-12-20T02:56:16.561Z,0.00
2018-12-20T02:57:16.628Z,0.00
2018-12-20T02:58:16.587Z,0.00
2018-12-20T02:59:16.489Z,0.00
2018-12-20T03:00:16.736Z,0.00
2018-12-20T03:01:16.450Z,0.00
2018-12-20T03:02:16.512Z,0.00
2018-12-20T03:03:16.547Z,0.00
2018-12-20T03:04:16.384Z,0.00
2018-12-20T03:05:16.597Z,0.00
2018-12-20T03:06:16.595Z,0.00
2018-12-20T03:07:16.607Z,0.00
2018-12-20T03:08:16.493Z,0.00
2018-12-20T03:09:16.384Z,0.00
2018-12-20T03:10:16.259Z,0.00
2018-12-20T03:11:16.278Z,0.00
2018-12-20T03:12:16.240Z,0.00
2018-12-20T03:13:16.198Z,0.00
2018-12-20T03:14:16.173Z,0.00
2018-12-20T03:15:20.130Z,0.00
2018-12-20T03:16:16.396Z,0.00
2018-12-20T03:17:16.114Z,0.00
2018-12-20T03:18:16.229Z,0.00
2018-12-20T03:19:16.253Z,0.00
2018-12-20T03:20:16.044Z,0.00
2018-12-20T03:21:16.281Z,0.00
2018-12-20T03:22:16.284Z,0.00
2018-12-20T03:23:15.986Z,0.00
2018-12-20T03:24:16.082Z,0.00
2018-12-20T03:25:15.946Z,0.00
2018-12-20T03:26:16.046Z,0.00
2018-12-20T03:27:15.977Z,0.00
2018-12-20T03:28:16.021Z,0.00
2018-12-20T03:29:16.023Z,0.00
2018-12-20T03:30:16.053Z,0.00
2018-12-20T03:31:16.049Z,0.00
2018-12-20T03:32:15.795Z,0.00
2018-12-20T03:33:15.966Z,0.00
2018-12-20T03:34:15.925Z,0.00
2018-12-20T03:35:15.827Z,0.00
2018-12-20T03:36:15.978Z,0.00
2018-12-20T03:37:15.976Z,0.00
2018-12-20T03:38:15.718Z,0.00
2018-12-20T03:39:15.916Z,0.00
2018-12-20T03:40:15.621Z,0.00
2018-12-20T03:41:15.610Z,0.00
2018-12-20T03:42:15.679Z,0.00
2018-12-20T03:43:15.564Z,0.00
2018-12-20T03:44:15.539Z,0.00
2018-12-20T03:45:15.517Z,0.00
2018-12-20T03:46:15.497Z,0.00
2018-12-20T03:47:15.541Z,0.00
2018-12-20T03:48:15.694Z,0.00
2018-12-20T03:49:15.430Z,0.00
2018-12-20T03:50:15.491Z,0.00
2018-12-20T03:51:15.660Z,0.00
2018-12-20T03:52:15.395Z,0.00
2018-12-20T03:53:15.404Z,0.00
2018-12-20T03:54:15.342Z,0.00
2018-12-20T03:55:15.444Z,0.00
2018-12-20T03:56:15.281Z,0.00
2018-12-20T03:57:15.322Z,0.00
2018-12-20T03:58:15.239Z,0.00
2018-12-20T03:59:15.380Z,0.00
2018-12-20T04:00:15.329Z,0.00
2018-12-20T04:01:15.365Z,0.00
2018-12-20T04:02:15.155Z,0.00
2018-12-20T04:03:15.331Z,0.00
2018-12-20T04:04:15.111Z,0.00
2018-12-20T04:05:15.231Z,0.00
2018-12-20T04:06:15.108Z,0.00
2018-12-20T04:07:15.047Z,0.00
2018-12-20T04:08:15.028Z,0.00
2018-12-20T04:09:15.220Z,0.00
2018-12-20T04:10:15.078Z,0.00
2018-12-20T04:11:15.117Z,0.00
2018-12-20T04:12:14.945Z,0.00
2018-12-20T04:13:15.215Z,0.00
2018-12-20T04:14:15.049Z,0.00
2018-12-20T04:15:14.958Z,0.00
2018-12-20T04:16:15.042Z,0.00
2018-12-20T04:17:15.050Z,0.00
2018-12-20T04:18:14.850Z,0.00
2018-12-20T04:19:14.901Z,0.00
2018-12-20T04:20:15.028Z,0.00
2018-12-20T04:21:14.963Z,0.00
2018-12-20T04:22:14.831Z,0.00
2018-12-20T04:23:14.708Z,0.00
2018-12-20T04:24:14.689Z,0.00
2018-12-20T04:25:14.744Z,0.00
2018-12-20T04:26:14.754Z,0.00
2018-12-20T04:27:14.623Z,0.00
2018-12-20T04:28:14.821Z,0.00
2018-12-20T04:29:14.597Z,0.00
2018-12-20T04:30:14.559Z,0.00
2018-12-20T04:31:14.893Z,0.00
2018-12-20T04:32:14.606Z,0.00
2018-12-20T04:33:14.697Z,0.00
2018-12-20T04:34:14.621Z,0.00
2018-12-20T04:35:14.456Z,0.00
2018-12-20T04:36:14.803Z,0.00
2018-12-20T04:37:14.428Z,0.00
2018-12-20T04:38:14.406Z,0.00
2018-12-20T04:39:14.378Z,0.00
2018-12-20T04:40:14.493Z,0.00
2018-12-20T04:41:14.329Z,0.00
2018-12-20T04:42:14.311Z,0.00
2018-12-20T04:43:14.288Z,0.00
2018-12-20T04:44:14.287Z,0.00
2018-12-20T04:45:14.251Z,0.00
2018-12-20T04:46:14.223Z,0.00
2018-12-20T04:47:14.260Z,0.00
2018-12-20T04:48:14.215Z,0.00
2018-12-20T04:49:14.270Z,0.00
2018-12-20T04:50:14.141Z,0.00
2018-12-20T04:51:14.127Z,0.00
2018-12-20T04:52:14.099Z,0.00
2018-12-20T04:53:14.075Z,0.00
2018-12-20T04:54:14.058Z,0.00
2018-12-20T04:55:14.266Z,0.00
2018-12-20T04:56:14.155Z,0.00
2018-12-20T04:57:14.160Z,0.00
2018-12-20T04:58:13.973Z,0.00
2018-12-20T04:59:13.949Z,0.00
2018-12-20T05:00:13.941Z,0.00
2018-12-20T05:01:13.954Z,0.00
2018-12-20T05:02:13.988Z,0.00
2018-12-20T05:03:13.944Z,0.00
2018-12-20T05:04:13.843Z,0.00
2018-12-20T05:05:14.031Z,0.00
2018-12-20T05:06:13.801Z,0.00
2018-12-20T05:07:13.812Z,0.00
2018-12-20T05:08:13.796Z,0.00
2018-12-20T05:09:13.747Z,0.00
2018-12-20T05:10:13.723Z,0.00
2018-12-20T05:11:13.810Z,0.00
2018-12-20T05:12:13.673Z,0.00
2018-12-20T05:13:13.677Z,0.00
2018-12-20T05:14:13.630Z,0.00
2018-12-20T05:15:13.642Z,0.00
2018-12-20T05:16:13.630Z,0.00
2018-12-20T05:17:13.605Z,0.00
2018-12-20T05:18:13.618Z,0.00
2018-12-20T05:19:13.777Z,0.00
2018-12-20T05:20:13.618Z,0.00
2018-12-20T05:21:13.610Z,0.00
2018-12-20T05:22:13.746Z,0.00
2018-12-20T05:23:13.590Z,0.00
2018-12-20T05:24:13.512Z,0.00
2018-12-20T05:25:13.400Z,0.00
2018-12-20T05:26:13.582Z,0.00
2018-12-20T05:27:13.435Z,0.00
2018-12-20T05:28:13.341Z,0.00
2018-12-20T05:29:13.322Z,0.00
2018-12-20T05:30:13.371Z,0.00
2018-12-20T05:31:13.277Z,0.00
2018-12-20T05:32:13.257Z,0.00
2018-12-20T05:33:13.245Z,0.00
2018-12-20T05:34:13.212Z,0.00
2018-12-20T05:35:13.392Z,0.00
2018-12-20T05:36:13.171Z,0.00
2018-12-20T05:37:13.312Z,0.00
2018-12-20T05:38:13.271Z,0.00
2018-12-20T05:39:13.109Z,0.00
2018-12-20T05:40:13.304Z,0.00
2018-12-20T05:41:13.360Z,0.00
2018-12-20T05:42:13.047Z,0.00
2018-12-20T05:43:13.027Z,0.00
2018-12-20T05:44:13.037Z,0.00
2018-12-20T05:45:13.077Z,0.00
2018-12-20T05:46:13.118Z,0.00
2018-12-20T05:47:13.056Z,0.00
2018-12-20T05:48:12.963Z,0.00
2018-12-20T05:49:12.924Z,0.00
2018-12-20T05:50:12.874Z,0.00
2018-12-20T05:51:12.853Z,0.00
2018-12-20T05:52:12.834Z,0.00
2018-12-20T05:53:12.814Z,0.00
2018-12-20T05:54:12.844Z,0.00
2018-12-20T05:55:12.771Z,0.00
2018-12-20T05:56:12.768Z,0.00
2018-12-20T05:57:12.729Z,0.00
2018-12-20T05:58:12.885Z,0.00
2018-12-20T05:59:12.694Z,0.00
2018-12-20T06:00:12.788Z,0.00
2018-12-20T06:01:12.650Z,0.00
2018-12-20T06:02:12.653Z,0.00
2018-12-20T06:03:12.642Z,0.00
2018-12-20T06:04:12.592Z,0.00
2018-12-20T06:05:12.564Z,0.00
2018-12-20T06:06:12.734Z,0.00
2018-12-20T06:07:12.563Z,0.00
2018-12-20T06:08:12.501Z,0.00
2018-12-20T06:09:12.480Z,0.00
2018-12-20T06:10:12.458Z,0.00
2018-12-20T06:11:12.680Z,0.00
2018-12-20T06:12:12.499Z,0.00
2018-12-20T06:13:12.428Z,0.00
2018-12-20T06:14:12.538Z,0.00
2018-12-20T06:15:12.568Z,0.00
2018-12-20T06:16:13.112Z,0.00
2018-12-20T06:17:12.332Z,0.00
2018-12-20T06:18:12.642Z,0.00
2018-12-20T06:19:12.601Z,0.00
2018-12-20T06:20:12.408Z,0.00
2018-12-20T06:21:12.472Z,0.00
2018-12-20T06:22:12.209Z,0.00
2018-12-20T06:23:12.307Z,0.00
2018-12-20T06:24:12.167Z,0.00
2018-12-20T06:25:12.156Z,0.00
2018-12-20T06:26:12.130Z,0.00
2018-12-20T06:27:12.106Z,0.00
2018-12-20T06:28:12.093Z,0.00
2018-12-20T06:29:12.066Z,0.00
2018-12-20T06:30:12.044Z,0.00
2018-12-20T06:31:12.033Z,0.00
2018-12-20T06:32:12.004Z,0.00
2018-12-20T06:33:11.981Z,0.00
2018-12-20T06:34:11.965Z,0.00
2018-12-20T06:35:11.942Z,0.00
2018-12-20T06:36:11.917Z,0.00
2018-12-20T06:37:11.901Z,0.00
2018-12-20T06:38:11.878Z,0.00
2018-12-20T06:39:11.858Z,0.00
2018-12-20T06:40:11.839Z,0.00
2018-12-20T06:41:11.820Z,0.00
2018-12-20T06:42:11.795Z,0.00
2018-12-20T06:43:11.776Z,0.00
2018-12-20T06:44:11.753Z,0.00
2018-12-20T06:45:11.731Z,0.00
2018-12-20T06:46:11.710Z,0.00
2018-12-20T06:47:11.695Z,0.00
2018-12-20T06:48:11.667Z,0.00
2018-12-20T06:49:11.650Z,0.00
2018-12-20T06:50:11.627Z,0.00
2018-12-20T06:51:11.606Z,0.00
2018-12-20T06:52:11.584Z,0.00
2018-12-20T06:53:11.571Z,0.00
2018-12-20T06:54:11.546Z,0.00
2018-12-20T06:55:11.594Z,0.00
2018-12-20T06:56:11.505Z,0.00
2018-12-20T06:57:11.484Z,0.00
2018-12-20T06:58:11.463Z,0.00
2018-12-20T06:59:11.447Z,0.00
2018-12-20T07:00:11.425Z,0.00
2018-12-20T07:01:11.411Z,0.00
2018-12-20T07:02:11.390Z,0.00
2018-12-20T07:03:11.366Z,0.00
2018-12-20T07:04:11.339Z,0.00
2018-12-20T07:05:11.325Z,0.00
2018-12-20T07:06:11.294Z,0.00
2018-12-20T07:07:11.285Z,0.00
2018-12-20T07:08:11.255Z,0.00
2018-12-20T07:09:11.239Z,0.00
2018-12-20T07:10:11.214Z,4.00
2018-12-20T07:11:11.192Z,4.00
2018-12-20T07:12:11.172Z,4.00
2018-12-20T07:13:11.156Z,0.00
2018-12-20T07:14:11.134Z,4.00
2018-12-20T07:15:11.112Z,4.00
2018-12-20T07:16:11.092Z,4.00
2018-12-20T07:17:11.072Z,4.00
2018-12-20T07:18:11.061Z,4.00
2018-12-20T07:19:11.032Z,4.00
2018-12-20T07:20:11.007Z,4.00
2018-12-20T07:21:10.988Z,4.00
2018-12-20T07:22:10.967Z,8.00
2018-12-20T07:23:10.948Z,4.00
2018-12-20T07:24:10.926Z,4.00
2018-12-20T07:25:10.913Z,8.00
2018-12-20T07:26:10.895Z,8.00
2018-12-20T07:27:10.866Z,12.00
2018-12-20T07:28:10.847Z,20.00
2018-12-20T07:29:10.825Z,20.00
2018-12-20T07:30:10.811Z,24.00
2018-12-20T07:31:10.792Z,24.00
2018-12-20T07:32:10.762Z,28.00
2018-12-20T07:33:10.740Z,36.00
2018-12-20T07:34:10.721Z,40.00
2018-12-20T07:35:10.711Z,36.00
2018-12-20T07:36:10.681Z,36.00
2018-12-20T07:37:10.663Z,44.00
2018-12-20T07:38:10.648Z,52.00
2018-12-20T07:39:10.619Z,48.00
2018-12-20T07:40:10.597Z,56.00
2018-12-20T07:41:10.582Z,64.00
2018-12-20T07:42:10.555Z,64.00
2018-12-20T07:43:10.539Z,72.00
2018-12-20T07:44:10.520Z,68.00
2018-12-20T07:45:10.512Z,64.00
2018-12-20T07:46:10.473Z,60.00
2018-12-20T07:47:10.452Z,60.00
2018-12-20T07:48:10.435Z,68.00
2018-12-20T07:49:10.420Z,80.00
2018-12-20T07:50:10.395Z,88.00
2018-12-20T07:51:10.371Z,100.00
2018-12-20T07:52:10.350Z,104.00
2018-12-20T07:53:10.329Z,108.00
2018-12-20T07:54:10.309Z,120.00
2018-12-20T07:55:10.289Z,124.00
2018-12-20T07:56:10.280Z,132.00
2018-12-20T07:57:10.248Z,132.00
2018-12-20T07:58:10.232Z,144.00
2018-12-20T07:59:10.208Z,144.00
2018-12-20T08:00:10.194Z,152.00
2018-12-20T08:01:10.167Z,168.00
2018-12-20T08:02:10.150Z,180.00
2018-12-20T08:03:10.140Z,196.00
2018-12-20T08:04:10.105Z,208.00
2018-12-20T08:05:10.094Z,224.00
2018-12-20T08:06:10.065Z,240.00
2018-12-20T08:07:10.044Z,248.00
2018-12-20T08:08:10.025Z,256.00
2018-12-20T08:09:10.006Z,244.00
2018-12-20T08:10:09.980Z,228.00
2018-12-20T08:11:09.965Z,224.00
2018-12-20T08:12:09.941Z,184.00
2018-12-20T08:13:09.931Z,168.00
2018-12-20T08:14:09.899Z,168.00
2018-12-20T08:15:09.879Z,184.00
2018-12-20T08:16:09.863Z,224.00
2018-12-20T08:17:09.846Z,240.00
2018-12-20T08:18:09.818Z,252.00
2018-12-20T08:19:09.800Z,252.00
2018-12-20T08:20:09.777Z,280.00
2018-12-20T08:21:09.756Z,260.00
2018-12-20T08:22:09.738Z,236.00
2018-12-20T08:23:09.717Z,240.00
2018-12-20T08:24:09.696Z,240.00
2018-12-20T08:25:09.679Z,256.00
2018-12-20T08:26:09.658Z,276.00
2018-12-20T08:27:09.634Z,300.00
2018-12-20T08:28:09.616Z,320.00
2018-12-20T08:29:09.602Z,348.00
2018-12-20T08:30:09.578Z,352.00
2018-12-20T08:31:09.554Z,364.00
2018-12-20T08:32:09.539Z,428.00
2018-12-20T08:33:09.511Z,404.00
2018-12-20T08:34:09.492Z,408.00
2018-12-20T08:35:09.471Z,360.00
2018-12-20T08:36:09.451Z,348.00
2018-12-20T08:37:09.432Z,328.00
2018-12-20T08:38:09.416Z,316.00
2018-12-20T08:39:09.390Z,336.00
2018-12-20T08:40:09.367Z,344.00
2018-12-20T08:41:09.354Z,364.00
2018-12-20T08:42:09.324Z,360.00
2018-12-20T08:43:09.307Z,376.00
2018-12-20T08:44:09.291Z,316.00
2018-12-20T08:45:09.277Z,280.00
2018-12-20T08:46:09.247Z,284.00
2018-12-20T08:47:09.224Z,276.00
2018-12-20T08:48:09.203Z,276.00
2018-12-20T08:49:09.183Z,268.00
2018-12-20T08:50:09.163Z,264.00
2018-12-20T08:51:09.142Z,280.00
2018-12-20T08:52:09.122Z,352.00
2018-12-20T08:53:09.103Z,416.00
2018-12-20T08:54:09.089Z,464.00
2018-12-20T08:55:09.083Z,492.00
2018-12-20T08:56:09.039Z,476.00
2018-12-20T08:57:09.021Z,412.00
2018-12-20T08:58:08.999Z,392.00
2018-12-20T08:59:08.980Z,300.00
2018-12-20T09:00:08.961Z,276.00
2018-12-20T09:01:08.947Z,280.00
2018-12-20T09:02:08.917Z,276.00
2018-12-20T09:03:08.904Z,268.00
2018-12-20T09:04:08.876Z,264.00
2018-12-20T09:05:08.859Z,276.00
2018-12-20T09:06:08.833Z,300.00
2018-12-20T09:07:08.819Z,356.00
2018-12-20T09:08:08.799Z,412.00
2018-12-20T09:09:08.773Z,436.00
2018-12-20T09:10:08.753Z,428.00
2018-12-20T09:11:08.739Z,456.00
2018-12-20T09:12:08.718Z,484.00
2018-12-20T09:13:09.675Z,512.00
2018-12-20T09:14:08.680Z,496.00
2018-12-20T09:15:08.651Z,456.00
2018-12-20T09:16:08.629Z,420.00
2018-12-20T09:17:08.613Z,464.00
2018-12-20T09:18:08.597Z,532.00
2018-12-20T09:19:08.574Z,700.00
2018-12-20T09:20:08.550Z,844.00
2018-12-20T09:21:08.530Z,916.00
2018-12-20T09:22:08.507Z,768.00
2018-12-20T09:23:08.492Z,600.00
2018-12-20T09:24:08.475Z,588.00
2018-12-20T09:25:08.450Z,608.00
2018-12-20T09:26:08.424Z,668.00
2018-12-20T09:27:08.408Z,700.00
2018-12-20T09:28:08.387Z,792.00
2018-12-20T09:29:08.373Z,920.00
2018-12-20T09:30:08.344Z,896.00
2018-12-20T09:31:08.329Z,960.00
2018-12-20T09:32:08.308Z,1112.00
2018-12-20T09:33:08.290Z,1212.00
2018-12-20T09:34:08.274Z,1200.00
2018-12-20T09:35:08.246Z,1140.00
2018-12-20T09:36:08.227Z,1124.00
2018-12-20T09:37:08.208Z,1124.00
2018-12-20T09:38:08.192Z,1104.00
2018-12-20T09:39:08.166Z,1064.00
2018-12-20T09:40:08.145Z,984.00
2018-12-20T09:41:08.131Z,964.00
2018-12-20T09:42:08.102Z,932.00
2018-12-20T09:43:08.091Z,976.00
2018-12-20T09:44:08.075Z,1140.00
2018-12-20T09:45:08.052Z,1372.00
2018-12-20T09:46:08.029Z,1620.00
2018-12-20T09:47:11.828Z,1696.00
2018-12-20T09:48:07.983Z,1736.00
2018-12-20T09:49:08.065Z,1876.00
2018-12-20T09:50:07.948Z,1872.00
2018-12-20T09:51:07.927Z,1904.00
2018-12-20T09:52:07.903Z,1780.00
2018-12-20T09:53:07.889Z,1684.00
2018-12-20T09:54:07.862Z,1380.00
2018-12-20T09:55:07.847Z,1316.00
2018-12-20T09:56:07.827Z,1400.00
2018-12-20T09:57:07.805Z,1564.00
2018-12-20T09:58:07.781Z,1732.00
2018-12-20T09:59:07.774Z,1480.00
2018-12-20T10:00:07.755Z,1320.00
2018-12-20T10:01:07.725Z,1396.00
2018-12-20T10:02:07.711Z,1508.00
2018-12-20T10:03:07.684Z,1424.00
2018-12-20T10:04:07.666Z,1296.00
2018-12-20T10:05:07.645Z,1280.00
2018-12-20T10:06:07.624Z,1404.00
2018-12-20T10:07:07.603Z,1560.00
2018-12-20T10:08:07.585Z,1760.00
2018-12-20T10:09:07.585Z,1568.00
2018-12-20T10:10:07.542Z,1392.00
2018-12-20T10:11:07.524Z,1420.00
2018-12-20T10:12:07.511Z,1356.00
2018-12-20T10:13:07.491Z,1256.00
2018-12-20T10:14:07.466Z,1252.00
2018-12-20T10:15:07.446Z,1240.00
2018-12-20T10:16:07.423Z,1224.00
2018-12-20T10:17:07.410Z,1284.00
2018-12-20T10:18:07.386Z,1376.00
2018-12-20T10:19:07.370Z,1408.00
2018-12-20T10:20:07.348Z,1576.00
2018-12-20T10:21:07.332Z,2376.00
2018-12-20T10:22:07.307Z,2192.00
2018-12-20T10:23:07.291Z,3628.00
2018-12-20T10:24:07.270Z,2844.00
2018-12-20T10:25:07.251Z,3960.00
2018-12-20T10:26:07.227Z,10576.00
2018-12-20T10:27:07.209Z,12140.00
2018-12-20T10:28:07.190Z,6280.00
2018-12-20T10:29:07.178Z,8000.00
2018-12-20T10:30:07.158Z,6624.00
2018-12-20T10:31:07.131Z,5860.00
2018-12-20T10:32:07.121Z,5920.00
2018-12-20T10:33:07.100Z,6420.00
2018-12-20T10:34:07.079Z,8160.00
2018-12-20T10:35:07.058Z,14624.00
2018-12-20T10:36:07.038Z,16000.00
2018-12-20T10:37:07.029Z,15936.00
2018-12-20T10:38:07.003Z,7964.00
2018-12-20T10:39:06.993Z,7764.00
2018-12-20T10:40:06.975Z,5288.00
2018-12-20T10:41:06.961Z,7996.00
2018-12-20T10:42:06.926Z,4344.00
2018-12-20T10:43:06.948Z,3312.00
2018-12-20T10:44:06.900Z,3440.00
2018-12-20T10:45:06.880Z,2712.00
2018-12-20T10:46:06.875Z,2540.00
2018-12-20T10:47:06.841Z,2304.00
2018-12-20T10:48:06.829Z,2004.00
2018-12-20T10:49:06.807Z,1900.00
2018-12-20T10:50:06.787Z,1640.00
2018-12-20T10:51:06.769Z,1344.00
2018-12-20T10:52:06.752Z,1172.00
2018-12-20T10:53:06.731Z,1096.00
2018-12-20T10:54:06.717Z,1092.00
2018-12-20T10:55:06.700Z,1028.00
2018-12-20T10:56:06.679Z,1104.00
2018-12-20T10:57:06.665Z,1276.00
2018-12-20T10:58:06.637Z,1440.00
2018-12-20T10:59:06.620Z,1604.00
2018-12-20T11:00:06.609Z,1620.00
2018-12-20T11:01:06.585Z,1420.00
2018-12-20T11:02:06.570Z,1148.00
2018-12-20T11:03:06.542Z,1044.00
2018-12-20T11:04:06.523Z,980.00
2018-12-20T11:05:06.501Z,936.00
2018-12-20T11:06:06.491Z,952.00
2018-12-20T11:07:06.468Z,856.00
2018-12-20T11:08:06.448Z,636.00
2018-12-20T11:09:06.428Z,672.00
2018-12-20T11:10:06.406Z,760.00
2018-12-20T11:11:06.390Z,856.00
2018-12-20T11:12:06.367Z,880.00
2018-12-20T11:13:06.352Z,936.00
2018-12-20T11:14:06.327Z,916.00
2018-12-20T11:15:06.308Z,1036.00
2018-12-20T11:16:06.368Z,968.00
2018-12-20T11:17:06.273Z,944.00
2018-12-20T11:18:06.250Z,908.00
2018-12-20T11:19:06.230Z,960.00
2018-12-20T11:20:06.211Z,1036.00
2018-12-20T11:21:06.198Z,1332.00
2018-12-20T11:22:06.173Z,1788.00
2018-12-20T11:23:06.154Z,1776.00
2018-12-20T11:24:06.133Z,1540.00
2018-12-20T11:25:06.118Z,1392.00
2018-12-20T11:26:06.112Z,1304.00
2018-12-20T11:27:06.083Z,1360.00
2018-12-20T11:28:06.058Z,1572.00
2018-12-20T11:29:06.040Z,1664.00
2018-12-20T11:30:06.016Z,1688.00
2018-12-20T11:31:05.997Z,1680.00
2018-12-20T11:32:05.978Z,1312.00
2018-12-20T11:33:05.958Z,1216.00
2018-12-20T11:34:05.941Z,1280.00
2018-12-20T11:35:05.932Z,1264.00
2018-12-20T11:36:05.910Z,1272.00
2018-12-20T11:37:05.896Z,1292.00
2018-12-20T11:38:05.872Z,1432.00
2018-12-20T11:39:08.576Z,1480.00
2018-12-20T11:40:05.828Z,1496.00
2018-12-20T11:41:05.818Z,1548.00
2018-12-20T11:42:05.783Z,1448.00
2018-12-20T11:43:05.766Z,1204.00
2018-12-20T11:44:05.746Z,1244.00
2018-12-20T11:45:05.729Z,1112.00
2018-12-20T11:46:05.716Z,888.00
2018-12-20T11:47:05.686Z,996.00
2018-12-20T11:48:05.675Z,968.00
2018-12-20T11:49:05.652Z,1028.00
2018-12-20T11:50:05.638Z,1044.00
2018-12-20T11:51:05.609Z,1332.00
2018-12-20T11:52:05.592Z,1688.00
2018-12-20T11:53:05.579Z,1928.00
2018-12-20T11:54:05.551Z,2192.00
2018-12-20T11:55:05.547Z,2340.00
2018-12-20T11:56:05.515Z,2704.00
2018-12-20T11:57:05.504Z,2728.00
2018-12-20T11:58:05.472Z,2036.00
2018-12-20T11:59:05.453Z,1860.00
2018-12-20T12:00:05.442Z,1800.00
2018-12-20T12:01:05.417Z,1896.00
2018-12-20T12:02:05.408Z,1872.00
2018-12-20T12:03:05.384Z,1812.00
2018-12-20T12:04:05.363Z,2208.00
2018-12-20T12:05:05.342Z,3912.00
2018-12-20T12:06:05.319Z,2488.00
2018-12-20T12:07:05.302Z,2416.00
2018-12-20T12:08:05.280Z,2320.00
2018-12-20T12:09:05.271Z,2008.00
2018-12-20T12:10:05.499Z,1260.00
2018-12-20T12:11:05.222Z,876.00
2018-12-20T12:12:05.210Z,932.00
2018-12-20T12:13:05.193Z,1056.00
2018-12-20T12:14:05.165Z,1164.00
2018-12-20T12:15:05.143Z,1264.00
2018-12-20T12:16:05.126Z,1300.00
2018-12-20T12:17:05.106Z,1320.00
2018-12-20T12:18:05.095Z,1276.00
2018-12-20T12:19:05.070Z,1180.00
2018-12-20T12:20:05.050Z,1080.00
2018-12-20T12:21:05.028Z,1024.00
2018-12-20T12:22:05.009Z,1012.00
2018-12-20T12:23:04.998Z,1060.00
2018-12-20T12:24:04.971Z,1172.00
2018-12-20T12:25:04.957Z,1232.00
2018-12-20T12:26:04.944Z,1276.00
2018-12-20T12:27:04.925Z,1208.00
2018-12-20T12:28:04.900Z,1164.00
2018-12-20T12:29:04.879Z,992.00
2018-12-20T12:30:04.858Z,940.00
2018-12-20T12:31:04.844Z,900.00
2018-12-20T12:32:04.829Z,892.00
2018-12-20T12:33:04.806Z,988.00
2018-12-20T12:34:04.789Z,1128.00
2018-12-20T12:35:04.766Z,1252.00
2018-12-20T12:36:04.742Z,1252.00
2018-12-20T12:37:04.726Z,1252.00
2018-12-20T12:38:04.717Z,1284.00
2018-12-20T12:39:04.690Z,1228.00
2018-12-20T12:40:04.668Z,1244.00
2018-12-20T12:41:04.647Z,1324.00
2018-12-20T12:42:04.630Z,1428.00
2018-12-20T12:43:04.613Z,1580.00
2018-12-20T12:44:04.596Z,1572.00
2018-12-20T12:45:04.572Z,1604.00
2018-12-20T12:46:04.554Z,1648.00
2018-12-20T12:47:04.530Z,1812.00
2018-12-20T12:48:04.521Z,1864.00
2018-12-20T12:49:04.494Z,1872.00
2018-12-20T12:50:04.472Z,1740.00
2018-12-20T12:51:04.454Z,1612.00